Gazi — 9HA2542 — position and weather

sailwx.info

Track history (hours):
 
Tides and Currents Weather Stations Pressure Air Temp Water Temp Dewpoint Dewpoint Depression Visibility Wind Speed Wind Dir Waves Ship Positions

Gazi

Last reported at 2016-Apr-30 02:14 UTC. Time now 2016-Apr-30 13:07 UTC.
Position N 37°35' W 000°12'.

Length 153 m; draft 9.2 m.

Type: Ship. MMSI: 248841000.

Date/timePositionNaut miles runAvg speedWind from/ knotsBaromVisibWave heightAir tempDewpointWater temp
2016-Apr-30 02:14N 37°35' W 000°12'811.2
2016-Apr-30 01:33N 37°30' W 000°19'1311.2
2016-Apr-30 00:21N 37°23' W 000°33'910.8
2016-Apr-29 23:33N 37°17' W 000°41'1110.8
2016-Apr-29 22:32N 37°11' W 000°52'21810.8
2016-Apr-29 02:24N 36°04' W 005°11'911.2
2016-Apr-29 01:33N 36°06' W 005°22'2 0.6
2016-Apr-28 22:28N 36°08' W 005°22'0 0.1
2016-Apr-28 20:16N 36°08' W 005°22'0 0.1
2016-Apr-28 19:28N 36°08' W 005°22'0 0.0
2016-Apr-28 17:33N 36°08' W 005°22'0 0.1
2016-Apr-28 16:31N 36°08' W 005°22'0 0.0
2016-Apr-28 15:27N 36°08' W 005°22'0 0.1
2016-Apr-28 14:33N 36°08' W 005°22'0 0.0
2016-Apr-28 13:31N 36°08' W 005°22'4 3.9
2016-Apr-28 12:33N 36°05' W 005°19'3 3.2
2016-Apr-28 11:33N 36°06' W 005°15'2 1.9
2016-Apr-28 10:17N 36°04' W 005°17'6 7.7
2016-Apr-28 09:33N 36°00' W 005°22'43111.3
2016-Apr-26 19:33N 30°51' W 011°22'1010.0
2016-Apr-26 18:33N 30°43' W 011°29'17610.9
2016-Apr-26 02:28N 28°15' W 013°19'1311.3
2016-Apr-26 01:18N 28°04' W 013°27'811.3
2016-Apr-26 00:34N 27°58' W 013°33'1111.3
2016-Apr-25 23:34N 27°50' W 013°42'1211.2
2016-Apr-25 22:32N 27°42' W 013°51'1111.0
2016-Apr-25 21:33N 27°35' W 014°00'2210.9
2016-Apr-25 19:31N 27°20' W 014°19'  
Track history (hours):
 
Tides and Currents Weather Stations Pressure Air Temp Water Temp Dewpoint Dewpoint Depression Visibility Wind Speed Wind Dir Waves Ship Positions

Gazi

Last reported at 2016-Apr-30 02:14 UTC. Time now 2016-Apr-30 13:07 UTC.
Position N 37°35' W 000°12'.

Length 153 m; draft 9.2 m.

Type: Ship. MMSI: 248841000.

Date/timePositionNaut miles runAvg speedWind from/ knotsBaromVisibWave heightAir tempDewpointWater temp
2016-Apr-30 02:14N 37°35' W 000°12'811.2
2016-Apr-30 01:33N 37°30' W 000°19'1311.2
2016-Apr-30 00:21N 37°23' W 000°33'910.8
2016-Apr-29 23:33N 37°17' W 000°41'1110.8
2016-Apr-29 22:32N 37°11' W 000°52'21810.8
2016-Apr-29 02:24N 36°04' W 005°11'911.2
2016-Apr-29 01:33N 36°06' W 005°22'2 0.6
2016-Apr-28 22:28N 36°08' W 005°22'0 0.1
2016-Apr-28 20:16N 36°08' W 005°22'0 0.1
2016-Apr-28 19:28N 36°08' W 005°22'0 0.0
2016-Apr-28 17:33N 36°08' W 005°22'0 0.1
2016-Apr-28 16:31N 36°08' W 005°22'0 0.0
2016-Apr-28 15:27N 36°08' W 005°22'0 0.1
2016-Apr-28 14:33N 36°08' W 005°22'0 0.0
2016-Apr-28 13:31N 36°08' W 005°22'4 3.9
2016-Apr-28 12:33N 36°05' W 005°19'3 3.2
2016-Apr-28 11:33N 36°06' W 005°15'2 1.9
2016-Apr-28 10:17N 36°04' W 005°17'6 7.7
2016-Apr-28 09:33N 36°00' W 005°22'43111.3
2016-Apr-26 19:33N 30°51' W 011°22'1010.0
2016-Apr-26 18:33N 30°43' W 011°29'17610.9
2016-Apr-26 02:28N 28°15' W 013°19'1311.3
2016-Apr-26 01:18N 28°04' W 013°27'811.3
2016-Apr-26 00:34N 27°58' W 013°33'1111.3
2016-Apr-25 23:34N 27°50' W 013°42'1211.2
2016-Apr-25 22:32N 27°42' W 013°51'1111.0
2016-Apr-25 21:33N 27°35' W 014°00'2210.9
2016-Apr-25 19:31N 27°20' W 014°19'  

Dump ship's entire track history